sensor_id;sensor_type;location;lat;lon;timestamp;temperature;humidity
51305;HTU21D;37392;50.964;6.952;2022-07-23T00:02:20;18.43;94.07
51305;HTU21D;37392;50.964;6.952;2022-07-23T00:04:46;18.43;94.01
51305;HTU21D;37392;50.964;6.952;2022-07-23T00:07:11;18.46;94.23
51305;HTU21D;37392;50.964;6.952;2022-07-23T00:09:37;18.41;94.52
51305;HTU21D;37392;50.964;6.952;2022-07-23T00:12:02;18.35;95.99
51305;HTU21D;37392;50.964;6.952;2022-07-23T00:14:28;18.21;98.29
51305;HTU21D;37392;50.964;6.952;2022-07-23T00:16:53;18.08;100.39
51305;HTU21D;37392;50.964;6.952;2022-07-23T00:19:19;17.90;104.54
51305;HTU21D;37392;50.964;6.952;2022-07-23T00:21:44;17.54;107.83
51305;HTU21D;37392;50.964;6.952;2022-07-23T00:24:10;17.28;110.41
51305;HTU21D;37392;50.964;6.952;2022-07-23T00:26:35;17.15;112.96
51305;HTU21D;37392;50.964;6.952;2022-07-23T00:29:00;17.00;114.10
51305;HTU21D;37392;50.964;6.952;2022-07-23T00:31:26;16.93;115.58
51305;HTU21D;37392;50.964;6.952;2022-07-23T00:33:52;16.74;115.01
51305;HTU21D;37392;50.964;6.952;2022-07-23T00:36:21;16.63;116.19
51305;HTU21D;37392;50.964;6.952;2022-07-23T00:38:48;16.63;117.60
51305;HTU21D;37392;50.964;6.952;2022-07-23T00:41:14;16.58;117.57
51305;HTU21D;37392;50.964;6.952;2022-07-23T00:43:40;16.54;117.88
51305;HTU21D;37392;50.964;6.952;2022-07-23T00:46:05;16.54;118.19
51305;HTU21D;37392;50.964;6.952;2022-07-23T00:48:31;16.51;118.21
51305;HTU21D;37392;50.964;6.952;2022-07-23T00:50:56;16.49;118.54
51305;HTU21D;37392;50.964;6.952;2022-07-23T00:53:22;16.50;118.82
51305;HTU21D;37392;50.964;6.952;2022-07-23T00:55:48;16.47;118.86
51305;HTU21D;37392;50.964;6.952;2022-07-23T00:58:14;16.42;118.76
51305;HTU21D;37392;50.964;6.952;2022-07-23T01:00:40;16.42;118.90
51305;HTU21D;37392;50.964;6.952;2022-07-23T01:03:05;16.43;-5.75
51305;HTU21D;37392;50.964;6.952;2022-07-23T01:05:30;16.48;-5.51
51305;HTU21D;37392;50.964;6.952;2022-07-23T01:07:56;16.52;-5.27
51305;HTU21D;37392;50.964;6.952;2022-07-23T01:10:21;16.46;-5.31
51305;HTU21D;37392;50.964;6.952;2022-07-23T01:12:57;16.42;-5.24
51305;HTU21D;37392;50.964;6.952;2022-07-23T01:15:27;16.32;-5.40
51305;HTU21D;37392;50.964;6.952;2022-07-23T01:17:53;16.26;-5.40
51305;HTU21D;37392;50.964;6.952;2022-07-23T01:20:19;16.22;-5.31
51305;HTU21D;37392;50.964;6.952;2022-07-23T01:22:45;16.12;118.85
51305;HTU21D;37392;50.964;6.952;2022-07-23T01:25:10;15.96;118.62
51305;HTU21D;37392;50.964;6.952;2022-07-23T01:27:36;15.95;-5.31
51305;HTU21D;37392;50.964;6.952;2022-07-23T01:30:02;15.95;-4.96
51305;HTU21D;37392;50.964;6.952;2022-07-23T01:32:27;15.95;-4.64
51305;HTU21D;37392;50.964;6.952;2022-07-23T01:34:53;16.01;-4.41
51305;HTU21D;37392;50.964;6.952;2022-07-23T01:37:19;16.07;-4.10
51305;HTU21D;37392;50.964;6.952;2022-07-23T01:39:44;16.11;-4.01
51305;HTU21D;37392;50.964;6.952;2022-07-23T01:42:10;16.12;-4.02
51305;HTU21D;37392;50.964;6.952;2022-07-23T01:44:35;16.11;-3.96
51305;HTU21D;37392;50.964;6.952;2022-07-23T01:47:00;16.08;-3.92
51305;HTU21D;37392;50.964;6.952;2022-07-23T01:49:26;16.07;-3.96
51305;HTU21D;37392;50.964;6.952;2022-07-23T01:51:51;16.06;-3.92
51305;HTU21D;37392;50.964;6.952;2022-07-23T01:54:29;16.12;-3.82
51305;HTU21D;37392;50.964;6.952;2022-07-23T01:56:56;16.02;-3.92
51305;HTU21D;37392;50.964;6.952;2022-07-23T01:59:22;16.00;-3.92
51305;HTU21D;37392;50.964;6.952;2022-07-23T02:01:48;15.99;-3.92
51305;HTU21D;37392;50.964;6.952;2022-07-23T02:04:19;16.01;-3.67
51305;HTU21D;37392;50.964;6.952;2022-07-23T02:06:45;16.10;-3.58
51305;HTU21D;37392;50.964;6.952;2022-07-23T02:09:11;16.12;-3.42
51305;HTU21D;37392;50.964;6.952;2022-07-23T02:11:37;16.16;-3.45
51305;HTU21D;37392;50.964;6.952;2022-07-23T02:14:02;16.15;-3.54
51305;HTU21D;37392;50.964;6.952;2022-07-23T02:16:28;16.18;-3.44
51305;HTU21D;37392;50.964;6.952;2022-07-23T02:18:53;16.16;-3.43
51305;HTU21D;37392;50.964;6.952;2022-07-23T02:21:19;16.13;-3.43
51305;HTU21D;37392;50.964;6.952;2022-07-23T02:23:45;16.10;-3.73
51305;HTU21D;37392;50.964;6.952;2022-07-23T02:26:20;16.07;-3.70
51305;HTU21D;37392;50.964;6.952;2022-07-23T02:28:49;16.08;-3.54
51305;HTU21D;37392;50.964;6.952;2022-07-23T02:31:21;16.15;-3.39
51305;HTU21D;37392;50.964;6.952;2022-07-23T02:33:51;16.18;-3.36
51305;HTU21D;37392;50.964;6.952;2022-07-23T02:36:20;16.19;-3.38
51305;HTU21D;37392;50.964;6.952;2022-07-23T02:38:49;16.24;-3.26
51305;HTU21D;37392;50.964;6.952;2022-07-23T02:41:15;16.26;-3.28
51305;HTU21D;37392;50.964;6.952;2022-07-23T02:43:45;16.26;-3.24
51305;HTU21D;37392;50.964;6.952;2022-07-23T02:46:11;16.24;-3.22
51305;HTU21D;37392;50.964;6.952;2022-07-23T02:48:39;16.25;-3.22
51305;HTU21D;37392;50.964;6.952;2022-07-23T02:51:08;16.22;-3.23
51305;HTU21D;37392;50.964;6.952;2022-07-23T02:53:40;16.19;-3.15
51305;HTU21D;37392;50.964;6.952;2022-07-23T02:56:07;16.13;-3.20
51305;HTU21D;37392;50.964;6.952;2022-07-23T02:58:33;16.00;-3.22
51305;HTU21D;37392;50.964;6.952;2022-07-23T03:01:03;15.88;-3.24
51305;HTU21D;37392;50.964;6.952;2022-07-23T03:03:29;15.80;-3.06
51305;HTU21D;37392;50.964;6.952;2022-07-23T03:05:55;15.69;-3.00
51305;HTU21D;37392;50.964;6.952;2022-07-23T03:08:27;15.62;-2.93
51305;HTU21D;37392;50.964;6.952;2022-07-23T03:10:56;15.60;-2.73
51305;HTU21D;37392;50.964;6.952;2022-07-23T03:13:23;15.65;-2.48
51305;HTU21D;37392;50.964;6.952;2022-07-23T03:15:49;15.55;-2.57
51305;HTU21D;37392;50.964;6.952;2022-07-23T03:18:17;15.45;-2.53
51305;HTU21D;37392;50.964;6.952;2022-07-23T03:20:43;15.38;-2.38
51305;HTU21D;37392;50.964;6.952;2022-07-23T03:23:08;15.30;-2.46
51305;HTU21D;37392;50.964;6.952;2022-07-23T03:25:34;15.29;-2.26
51305;HTU21D;37392;50.964;6.952;2022-07-23T03:27:59;15.22;-2.28
51305;HTU21D;37392;50.964;6.952;2022-07-23T03:30:25;15.26;-2.14
51305;HTU21D;37392;50.964;6.952;2022-07-23T03:32:50;15.21;-2.11
51305;HTU21D;37392;50.964;6.952;2022-07-23T03:35:16;15.16;-1.95
51305;HTU21D;37392;50.964;6.952;2022-07-23T03:37:41;15.13;-1.97
51305;HTU21D;37392;50.964;6.952;2022-07-23T03:40:07;15.16;-1.87
51305;HTU21D;37392;50.964;6.952;2022-07-23T03:42:32;15.14;-1.86
51305;HTU21D;37392;50.964;6.952;2022-07-23T03:44:58;15.12;-1.82
51305;HTU21D;37392;50.964;6.952;2022-07-23T03:47:24;15.09;-1.80
51305;HTU21D;37392;50.964;6.952;2022-07-23T03:49:49;15.07;-1.75
51305;HTU21D;37392;50.964;6.952;2022-07-23T03:52:15;15.03;-1.71
51305;HTU21D;37392;50.964;6.952;2022-07-23T03:54:40;15.03;-1.63
51305;HTU21D;37392;50.964;6.952;2022-07-23T03:57:06;15.01;-1.61
51305;HTU21D;37392;50.964;6.952;2022-07-23T03:59:31;15.04;-1.53
51305;HTU21D;37392;50.964;6.952;2022-07-23T04:01:57;15.02;-1.47
51305;HTU21D;37392;50.964;6.952;2022-07-23T04:04:22;15.03;-1.43
51305;HTU21D;37392;50.964;6.952;2022-07-23T04:06:48;15.10;-1.32
51305;HTU21D;37392;50.964;6.952;2022-07-23T04:09:13;15.13;-1.30
51305;HTU21D;37392;50.964;6.952;2022-07-23T04:11:39;15.16;-1.28
51305;HTU21D;37392;50.964;6.952;2022-07-23T04:14:04;15.21;-1.22
51305;HTU21D;37392;50.964;6.952;2022-07-23T04:16:31;15.28;-1.14
51305;HTU21D;37392;50.964;6.952;2022-07-23T04:18:56;15.34;-1.06
51305;HTU21D;37392;50.964;6.952;2022-07-23T04:21:22;15.42;-1.01
51305;HTU21D;37392;50.964;6.952;2022-07-23T04:23:48;15.54;-0.96
51305;HTU21D;37392;50.964;6.952;2022-07-23T04:26:14;15.67;-0.90
51305;HTU21D;37392;50.964;6.952;2022-07-23T04:28:39;15.84;-0.78
51305;HTU21D;37392;50.964;6.952;2022-07-23T04:31:04;16.16;-0.69
51305;HTU21D;37392;50.964;6.952;2022-07-23T04:33:30;16.52;-0.51
51305;HTU21D;37392;50.964;6.952;2022-07-23T04:35:55;16.93;-0.47
51305;HTU21D;37392;50.964;6.952;2022-07-23T04:38:21;17.44;-0.38
51305;HTU21D;37392;50.964;6.952;2022-07-23T04:40:46;17.89;-0.34
51305;HTU21D;37392;50.964;6.952;2022-07-23T04:43:12;18.12;-1.11
51305;HTU21D;37392;50.964;6.952;2022-07-23T04:45:38;18.66;-1.52
51305;HTU21D;37392;50.964;6.952;2022-07-23T04:48:03;19.21;-1.59
51305;HTU21D;37392;50.964;6.952;2022-07-23T04:50:29;19.73;-2.42
51305;HTU21D;37392;50.964;6.952;2022-07-23T04:52:54;20.15;-4.04
51305;HTU21D;37392;50.964;6.952;2022-07-23T04:55:20;20.56;-5.65
51305;HTU21D;37392;50.964;6.952;2022-07-23T04:57:45;21.13;118.92
51305;HTU21D;37392;50.964;6.952;2022-07-23T05:00:11;21.40;115.34
51305;HTU21D;37392;50.964;6.952;2022-07-23T05:02:37;21.63;113.03
51305;HTU21D;37392;50.964;6.952;2022-07-23T05:05:02;21.85;110.27
51305;HTU21D;37392;50.964;6.952;2022-07-23T05:07:28;22.47;112.68
51305;HTU21D;37392;50.964;6.952;2022-07-23T05:09:53;22.87;108.33
51305;HTU21D;37392;50.964;6.952;2022-07-23T05:12:19;23.34;106.87
51305;HTU21D;37392;50.964;6.952;2022-07-23T05:14:44;23.58;101.38
51305;HTU21D;37392;50.964;6.952;2022-07-23T05:17:10;23.97;102.06
51305;HTU21D;37392;50.964;6.952;2022-07-23T05:19:35;24.09;96.55
51305;HTU21D;37392;50.964;6.952;2022-07-23T05:22:01;24.27;96.51
51305;HTU21D;37392;50.964;6.952;2022-07-23T05:24:27;24.57;95.68
51305;HTU21D;37392;50.964;6.952;2022-07-23T05:26:52;24.95;96.03
51305;HTU21D;37392;50.964;6.952;2022-07-23T05:29:18;25.15;90.84
51305;HTU21D;37392;50.964;6.952;2022-07-23T05:31:43;25.53;91.24
51305;HTU21D;37392;50.964;6.952;2022-07-23T05:34:09;25.32;89.57
51305;HTU21D;37392;50.964;6.952;2022-07-23T05:36:34;25.02;90.30
51305;HTU21D;37392;50.964;6.952;2022-07-23T05:39:00;24.83;90.10
51305;HTU21D;37392;50.964;6.952;2022-07-23T05:41:25;25.05;91.55
51305;HTU21D;37392;50.964;6.952;2022-07-23T05:43:51;25.27;89.06
51305;HTU21D;37392;50.964;6.952;2022-07-23T05:46:16;25.76;87.06
51305;HTU21D;37392;50.964;6.952;2022-07-23T05:48:42;26.45;85.97
51305;HTU21D;37392;50.964;6.952;2022-07-23T05:51:08;26.91;82.51
51305;HTU21D;37392;50.964;6.952;2022-07-23T05:53:34;27.59;79.17
51305;HTU21D;37392;50.964;6.952;2022-07-23T05:56:00;27.90;78.95
51305;HTU21D;37392;50.964;6.952;2022-07-23T05:58:26;27.89;78.36
51305;HTU21D;37392;50.964;6.952;2022-07-23T06:00:52;28.37;75.78
51305;HTU21D;37392;50.964;6.952;2022-07-23T06:03:17;29.26;74.72
51305;HTU21D;37392;50.964;6.952;2022-07-23T06:05:43;29.53;69.90
51305;HTU21D;37392;50.964;6.952;2022-07-23T06:08:08;29.92;67.88
51305;HTU21D;37392;50.964;6.952;2022-07-23T06:10:34;29.38;68.01
51305;HTU21D;37392;50.964;6.952;2022-07-23T06:12:59;29.13;67.27
51305;HTU21D;37392;50.964;6.952;2022-07-23T06:15:25;29.37;69.65
51305;HTU21D;37392;50.964;6.952;2022-07-23T06:17:50;29.06;69.34
51305;HTU21D;37392;50.964;6.952;2022-07-23T06:20:16;28.61;67.49
51305;HTU21D;37392;50.964;6.952;2022-07-23T06:22:41;28.30;66.71
51305;HTU21D;37392;50.964;6.952;2022-07-23T06:25:07;28.37;66.20
51305;HTU21D;37392;50.964;6.952;2022-07-23T06:27:33;28.53;64.48
51305;HTU21D;37392;50.964;6.952;2022-07-23T06:29:58;28.87;63.36
51305;HTU21D;37392;50.964;6.952;2022-07-23T06:32:24;29.23;62.34
51305;HTU21D;37392;50.964;6.952;2022-07-23T06:34:49;29.78;60.38
51305;HTU21D;37392;50.964;6.952;2022-07-23T06:37:15;30.19;59.49
51305;HTU21D;37392;50.964;6.952;2022-07-23T06:39:41;30.62;57.13
51305;HTU21D;37392;50.964;6.952;2022-07-23T06:42:07;30.81;56.68
51305;HTU21D;37392;50.964;6.952;2022-07-23T06:44:32;31.12;55.59
51305;HTU21D;37392;50.964;6.952;2022-07-23T06:46:58;31.49;54.88
51305;HTU21D;37392;50.964;6.952;2022-07-23T06:49:23;31.97;54.14
51305;HTU21D;37392;50.964;6.952;2022-07-23T06:51:48;32.30;52.42
51305;HTU21D;37392;50.964;6.952;2022-07-23T06:54:14;32.58;51.75
51305;HTU21D;37392;50.964;6.952;2022-07-23T06:56:39;32.69;51.40
51305;HTU21D;37392;50.964;6.952;2022-07-23T06:59:05;32.39;51.49
51305;HTU21D;37392;50.964;6.952;2022-07-23T07:01:31;32.58;51.79
51305;HTU21D;37392;50.964;6.952;2022-07-23T07:03:56;32.68;50.69
51305;HTU21D;37392;50.964;6.952;2022-07-23T07:06:22;32.92;50.43
51305;HTU21D;37392;50.964;6.952;2022-07-23T07:08:47;33.01;49.86
51305;HTU21D;37392;50.964;6.952;2022-07-23T07:11:13;32.59;50.76
51305;HTU21D;37392;50.964;6.952;2022-07-23T07:13:38;32.82;50.17
51305;HTU21D;37392;50.964;6.952;2022-07-23T07:16:04;33.20;49.15
51305;HTU21D;37392;50.964;6.952;2022-07-23T07:18:30;33.49;48.68
51305;HTU21D;37392;50.964;6.952;2022-07-23T07:20:57;34.10;46.74
51305;HTU21D;37392;50.964;6.952;2022-07-23T07:23:23;34.46;46.91
51305;HTU21D;37392;50.964;6.952;2022-07-23T07:25:49;34.90;46.56
51305;HTU21D;37392;50.964;6.952;2022-07-23T07:28:14;35.21;45.16
51305;HTU21D;37392;50.964;6.952;2022-07-23T07:30:40;35.03;44.77
51305;HTU21D;37392;50.964;6.952;2022-07-23T07:33:05;34.85;45.43
51305;HTU21D;37392;50.964;6.952;2022-07-23T07:35:31;35.44;44.67
51305;HTU21D;37392;50.964;6.952;2022-07-23T07:37:57;35.71;43.71
51305;HTU21D;37392;50.964;6.952;2022-07-23T07:40:24;36.34;43.00
51305;HTU21D;37392;50.964;6.952;2022-07-23T07:42:50;36.61;41.78
51305;HTU21D;37392;50.964;6.952;2022-07-23T07:45:19;37.02;41.54
51305;HTU21D;37392;50.964;6.952;2022-07-23T07:47:45;37.47;40.29
51305;HTU21D;37392;50.964;6.952;2022-07-23T07:50:10;37.89;39.91
51305;HTU21D;37392;50.964;6.952;2022-07-23T07:52:36;38.10;38.91
51305;HTU21D;37392;50.964;6.952;2022-07-23T07:55:02;37.32;39.75
51305;HTU21D;37392;50.964;6.952;2022-07-23T07:57:29;37.45;39.62
51305;HTU21D;37392;50.964;6.952;2022-07-23T07:59:55;37.14;40.15
51305;HTU21D;37392;50.964;6.952;2022-07-23T08:02:20;36.90;40.23
51305;HTU21D;37392;50.964;6.952;2022-07-23T08:04:46;37.07;39.41
51305;HTU21D;37392;50.964;6.952;2022-07-23T08:07:11;36.44;40.33
51305;HTU21D;37392;50.964;6.952;2022-07-23T08:09:38;36.23;40.93
51305;HTU21D;37392;50.964;6.952;2022-07-23T08:12:03;36.40;41.29
51305;HTU21D;37392;50.964;6.952;2022-07-23T08:14:29;37.14;39.75
51305;HTU21D;37392;50.964;6.952;2022-07-23T08:16:54;37.16;39.78
51305;HTU21D;37392;50.964;6.952;2022-07-23T08:19:20;36.24;40.85
51305;HTU21D;37392;50.964;6.952;2022-07-23T08:21:45;35.25;42.15
51305;HTU21D;37392;50.964;6.952;2022-07-23T08:24:10;34.67;43.66
51305;HTU21D;37392;50.964;6.952;2022-07-23T08:26:36;35.04;42.77
51305;HTU21D;37392;50.964;6.952;2022-07-23T08:29:02;35.33;42.32
51305;HTU21D;37392;50.964;6.952;2022-07-23T08:31:27;35.98;41.51
51305;HTU21D;37392;50.964;6.952;2022-07-23T08:33:52;36.06;41.39
51305;HTU21D;37392;50.964;6.952;2022-07-23T08:36:19;34.98;42.10
51305;HTU21D;37392;50.964;6.952;2022-07-23T08:38:44;33.81;43.52
51305;HTU21D;37392;50.964;6.952;2022-07-23T08:41:10;34.10;44.01
51305;HTU21D;37392;50.964;6.952;2022-07-23T08:43:36;34.86;42.31
51305;HTU21D;37392;50.964;6.952;2022-07-23T08:46:01;35.26;40.94
51305;HTU21D;37392;50.964;6.952;2022-07-23T08:48:28;35.66;40.10
51305;HTU21D;37392;50.964;6.952;2022-07-23T08:50:56;36.23;39.56
51305;HTU21D;37392;50.964;6.952;2022-07-23T08:53:24;36.07;39.69
51305;HTU21D;37392;50.964;6.952;2022-07-23T08:55:52;36.84;38.33
51305;HTU21D;37392;50.964;6.952;2022-07-23T08:58:20;36.77;38.68
51305;HTU21D;37392;50.964;6.952;2022-07-23T09:00:52;36.80;39.46
51305;HTU21D;37392;50.964;6.952;2022-07-23T09:03:22;35.86;40.75
51305;HTU21D;37392;50.964;6.952;2022-07-23T09:05:50;35.08;41.99
51305;HTU21D;37392;50.964;6.952;2022-07-23T09:11:04;35.05;42.00
51305;HTU21D;37392;50.964;6.952;2022-07-23T09:21:13;38.01;36.86
51305;HTU21D;37392;50.964;6.952;2022-07-23T09:23:45;38.52;36.02
51305;HTU21D;37392;50.964;6.952;2022-07-23T09:26:31;38.25;35.28
51305;HTU21D;37392;50.964;6.952;2022-07-23T09:31:49;35.96;38.85
51305;HTU21D;37392;50.964;6.952;2022-07-23T09:34:21;35.00;41.03
51305;HTU21D;37392;50.964;6.952;2022-07-23T09:36:49;34.01;42.97
51305;HTU21D;37392;50.964;6.952;2022-07-23T09:39:24;33.30;44.06
51305;HTU21D;37392;50.964;6.952;2022-07-23T09:41:55;33.59;42.73
51305;HTU21D;37392;50.964;6.952;2022-07-23T09:44:21;34.84;41.33
51305;HTU21D;37392;50.964;6.952;2022-07-23T09:46:49;36.53;38.90
51305;HTU21D;37392;50.964;6.952;2022-07-23T09:49:19;37.46;37.06
51305;HTU21D;37392;50.964;6.952;2022-07-23T09:51:57;37.20;36.26
51305;HTU21D;37392;50.964;6.952;2022-07-23T09:57:01;38.45;35.24
51305;HTU21D;37392;50.964;6.952;2022-07-23T09:59:34;38.49;34.57
51305;HTU21D;37392;50.964;6.952;2022-07-23T10:02:01;37.07;36.47
51305;HTU21D;37392;50.964;6.952;2022-07-23T10:04:29;35.78;38.88
51305;HTU21D;37392;50.964;6.952;2022-07-23T10:06:57;35.92;38.43
51305;HTU21D;37392;50.964;6.952;2022-07-23T10:09:28;36.48;37.52
51305;HTU21D;37392;50.964;6.952;2022-07-23T10:11:58;37.28;36.63
51305;HTU21D;37392;50.964;6.952;2022-07-23T10:14:44;38.15;35.03
51305;HTU21D;37392;50.964;6.952;2022-07-23T10:17:10;38.19;35.09
51305;HTU21D;37392;50.964;6.952;2022-07-23T10:19:36;38.20;34.43
51305;HTU21D;37392;50.964;6.952;2022-07-23T10:22:08;38.34;34.49
51305;HTU21D;37392;50.964;6.952;2022-07-23T10:30:22;37.75;34.81
51305;HTU21D;37392;50.964;6.952;2022-07-23T10:33:04;36.44;36.61
51305;HTU21D;37392;50.964;6.952;2022-07-23T10:35:38;36.85;37.19
51305;HTU21D;37392;50.964;6.952;2022-07-23T10:38:13;38.14;35.58
51305;HTU21D;37392;50.964;6.952;2022-07-23T10:40:57;39.38;33.38
51305;HTU21D;37392;50.964;6.952;2022-07-23T10:43:24;40.29;31.45
51305;HTU21D;37392;50.964;6.952;2022-07-23T10:45:50;40.65;30.48
51305;HTU21D;37392;50.964;6.952;2022-07-23T10:48:17;40.41;30.00
51305;HTU21D;37392;50.964;6.952;2022-07-23T10:51:05;39.84;30.72
51305;HTU21D;37392;50.964;6.952;2022-07-23T10:57:01;39.67;30.73
51305;HTU21D;37392;50.964;6.952;2022-07-23T10:59:31;39.43;31.25
51305;HTU21D;37392;50.964;6.952;2022-07-23T11:02:42;39.55;31.49
51305;HTU21D;37392;50.964;6.952;2022-07-23T11:04:49;39.04;30.39
51305;HTU21D;37392;50.964;6.952;2022-07-23T11:07:18;38.65;30.91
51305;HTU21D;37392;50.964;6.952;2022-07-23T11:09:44;38.59;31.67
51305;HTU21D;37392;50.964;6.952;2022-07-23T11:22:35;39.70;30.19
51305;HTU21D;37392;50.964;6.952;2022-07-23T11:25:14;39.12;30.00
51305;HTU21D;37392;50.964;6.952;2022-07-23T11:27:54;38.50;30.02
51305;HTU21D;37392;50.964;6.952;2022-07-23T11:33:37;38.16;31.37
51305;HTU21D;37392;50.964;6.952;2022-07-23T11:35:38;36.90;32.74
51305;HTU21D;37392;50.964;6.952;2022-07-23T11:38:15;35.83;34.98
51305;HTU21D;37392;50.964;6.952;2022-07-23T11:40:47;35.13;36.33
51305;HTU21D;37392;50.964;6.952;2022-07-23T11:43:17;34.62;37.33
51305;HTU21D;37392;50.964;6.952;2022-07-23T11:45:44;34.33;38.27
51305;HTU21D;37392;50.964;6.952;2022-07-23T11:48:22;34.55;38.28
51305;HTU21D;37392;50.964;6.952;2022-07-23T11:50:50;34.36;38.51
51305;HTU21D;37392;50.964;6.952;2022-07-23T11:53:30;34.27;38.30
51305;HTU21D;37392;50.964;6.952;2022-07-23T11:56:04;33.59;38.76
51305;HTU21D;37392;50.964;6.952;2022-07-23T11:58:30;32.79;39.79
51305;HTU21D;37392;50.964;6.952;2022-07-23T12:00:56;32.26;40.20
51305;HTU21D;37392;50.964;6.952;2022-07-23T12:03:22;31.57;40.77
51305;HTU21D;37392;50.964;6.952;2022-07-23T12:05:47;30.97;43.32
51305;HTU21D;37392;50.964;6.952;2022-07-23T12:08:13;30.91;43.95
51305;HTU21D;37392;50.964;6.952;2022-07-23T12:13:05;30.41;44.80
51305;HTU21D;37392;50.964;6.952;2022-07-23T12:15:47;30.05;45.43
51305;HTU21D;37392;50.964;6.952;2022-07-23T12:18:15;29.91;45.84
51305;HTU21D;37392;50.964;6.952;2022-07-23T12:20:46;29.75;46.19
51305;HTU21D;37392;50.964;6.952;2022-07-23T12:23:17;29.72;46.11
51305;HTU21D;37392;50.964;6.952;2022-07-23T12:25:45;29.87;45.89
51305;HTU21D;37392;50.964;6.952;2022-07-23T12:28:15;30.09;45.11
51305;HTU21D;37392;50.964;6.952;2022-07-23T12:33:13;30.23;44.00
51305;HTU21D;37392;50.964;6.952;2022-07-23T12:35:42;29.73;44.41
51305;HTU21D;37392;50.964;6.952;2022-07-23T12:38:10;29.11;45.88
51305;HTU21D;37392;50.964;6.952;2022-07-23T12:40:41;29.11;46.36
51305;HTU21D;37392;50.964;6.952;2022-07-23T12:43:27;28.97;47.04
51305;HTU21D;37392;50.964;6.952;2022-07-23T12:46:08;28.55;47.60
51305;HTU21D;37392;50.964;6.952;2022-07-23T12:48:49;28.46;48.51
51305;HTU21D;37392;50.964;6.952;2022-07-23T12:56:28;28.21;48.15
51305;HTU21D;37392;50.964;6.952;2022-07-23T12:58:56;28.32;47.76
51305;HTU21D;37392;50.964;6.952;2022-07-23T13:04:22;28.77;48.02
51305;HTU21D;37392;50.964;6.952;2022-07-23T13:06:44;28.77;46.44
51305;HTU21D;37392;50.964;6.952;2022-07-23T13:09:12;28.61;46.63
51305;HTU21D;37392;50.964;6.952;2022-07-23T13:11:39;28.38;47.79
51305;HTU21D;37392;50.964;6.952;2022-07-23T13:14:05;28.34;48.22
51305;HTU21D;37392;50.964;6.952;2022-07-23T13:16:30;28.42;48.18
51305;HTU21D;37392;50.964;6.952;2022-07-23T13:18:59;28.35;47.62
51305;HTU21D;37392;50.964;6.952;2022-07-23T13:21:26;28.34;48.57
51305;HTU21D;37392;50.964;6.952;2022-07-23T13:23:52;28.37;48.31
51305;HTU21D;37392;50.964;6.952;2022-07-23T13:26:18;28.31;48.69
51305;HTU21D;37392;50.964;6.952;2022-07-23T13:28:43;28.28;48.21
51305;HTU21D;37392;50.964;6.952;2022-07-23T13:31:09;28.23;48.11
51305;HTU21D;37392;50.964;6.952;2022-07-23T13:33:35;28.20;49.22
51305;HTU21D;37392;50.964;6.952;2022-07-23T13:36:00;28.25;48.75
51305;HTU21D;37392;50.964;6.952;2022-07-23T13:38:26;28.25;47.58
51305;HTU21D;37392;50.964;6.952;2022-07-23T13:40:55;28.11;47.92
51305;HTU21D;37392;50.964;6.952;2022-07-23T13:43:21;27.91;46.83
51305;HTU21D;37392;50.964;6.952;2022-07-23T13:45:48;27.73;47.44
51305;HTU21D;37392;50.964;6.952;2022-07-23T13:48:15;27.59;47.57
51305;HTU21D;37392;50.964;6.952;2022-07-23T13:50:44;27.63;48.23
51305;HTU21D;37392;50.964;6.952;2022-07-23T13:53:12;27.83;48.53
51305;HTU21D;37392;50.964;6.952;2022-07-23T13:55:46;28.02;48.13
51305;HTU21D;37392;50.964;6.952;2022-07-23T13:58:13;28.18;47.85
51305;HTU21D;37392;50.964;6.952;2022-07-23T14:00:39;28.25;46.97
51305;HTU21D;37392;50.964;6.952;2022-07-23T14:03:07;28.23;47.28
51305;HTU21D;37392;50.964;6.952;2022-07-23T14:05:37;28.11;48.08
51305;HTU21D;37392;50.964;6.952;2022-07-23T14:08:02;28.12;48.36
51305;HTU21D;37392;50.964;6.952;2022-07-23T14:10:32;27.99;47.83
51305;HTU21D;37392;50.964;6.952;2022-07-23T14:12:57;27.91;48.89
51305;HTU21D;37392;50.964;6.952;2022-07-23T14:15:25;27.80;48.35
51305;HTU21D;37392;50.964;6.952;2022-07-23T14:17:52;27.65;48.99
51305;HTU21D;37392;50.964;6.952;2022-07-23T14:20:18;27.61;49.44
51305;HTU21D;37392;50.964;6.952;2022-07-23T14:22:44;27.55;49.79
51305;HTU21D;37392;50.964;6.952;2022-07-23T14:25:10;27.50;48.88
51305;HTU21D;37392;50.964;6.952;2022-07-23T14:27:38;27.40;49.13
51305;HTU21D;37392;50.964;6.952;2022-07-23T14:30:07;27.34;49.72
51305;HTU21D;37392;50.964;6.952;2022-07-23T14:32:36;27.37;49.75
51305;HTU21D;37392;50.964;6.952;2022-07-23T14:35:03;27.38;49.99
51305;HTU21D;37392;50.964;6.952;2022-07-23T14:37:33;27.38;49.44
51305;HTU21D;37392;50.964;6.952;2022-07-23T14:40:02;27.19;49.65
51305;HTU21D;37392;50.964;6.952;2022-07-23T14:42:31;27.14;49.88
51305;HTU21D;37392;50.964;6.952;2022-07-23T14:45:00;27.13;49.57
51305;HTU21D;37392;50.964;6.952;2022-07-23T14:47:28;27.22;49.98
51305;HTU21D;37392;50.964;6.952;2022-07-23T14:49:56;27.29;49.82
51305;HTU21D;37392;50.964;6.952;2022-07-23T14:52:24;27.36;48.70
51305;HTU21D;37392;50.964;6.952;2022-07-23T14:54:53;27.38;48.93
51305;HTU21D;37392;50.964;6.952;2022-07-23T14:57:21;27.42;49.24
51305;HTU21D;37392;50.964;6.952;2022-07-23T14:59:55;27.46;48.92
51305;HTU21D;37392;50.964;6.952;2022-07-23T15:02:23;27.51;49.32
51305;HTU21D;37392;50.964;6.952;2022-07-23T15:08:42;27.39;50.10
51305;HTU21D;37392;50.964;6.952;2022-07-23T15:11:49;27.37;49.82
51305;HTU21D;37392;50.964;6.952;2022-07-23T15:17:35;27.31;50.20
51305;HTU21D;37392;50.964;6.952;2022-07-23T15:23:41;27.15;49.92
51305;HTU21D;37392;50.964;6.952;2022-07-23T15:26:52;27.09;50.33
51305;HTU21D;37392;50.964;6.952;2022-07-23T15:29:19;27.04;50.63
51305;HTU21D;37392;50.964;6.952;2022-07-23T15:31:45;26.93;50.90
51305;HTU21D;37392;50.964;6.952;2022-07-23T15:34:11;26.86;50.85
51305;HTU21D;37392;50.964;6.952;2022-07-23T15:36:36;26.76;51.35
51305;HTU21D;37392;50.964;6.952;2022-07-23T15:39:02;26.66;51.56
51305;HTU21D;37392;50.964;6.952;2022-07-23T15:44:37;26.53;51.60
51305;HTU21D;37392;50.964;6.952;2022-07-23T15:47:02;26.56;51.74
51305;HTU21D;37392;50.964;6.952;2022-07-23T15:49:28;26.56;50.98
51305;HTU21D;37392;50.964;6.952;2022-07-23T15:51:58;26.47;51.06
51305;HTU21D;37392;50.964;6.952;2022-07-23T15:54:24;26.50;51.27
51305;HTU21D;37392;50.964;6.952;2022-07-23T15:56:50;26.50;51.33
51305;HTU21D;37392;50.964;6.952;2022-07-23T15:59:15;26.52;51.33
51305;HTU21D;37392;50.964;6.952;2022-07-23T16:01:41;26.53;50.02
51305;HTU21D;37392;50.964;6.952;2022-07-23T16:04:06;26.47;50.30
51305;HTU21D;37392;50.964;6.952;2022-07-23T16:06:34;26.52;50.66
51305;HTU21D;37392;50.964;6.952;2022-07-23T16:09:00;26.66;50.70
51305;HTU21D;37392;50.964;6.952;2022-07-23T16:11:27;26.80;50.00
51305;HTU21D;37392;50.964;6.952;2022-07-23T16:13:55;26.82;49.73
51305;HTU21D;37392;50.964;6.952;2022-07-23T16:16:21;26.80;50.18
51305;HTU21D;37392;50.964;6.952;2022-07-23T16:18:49;26.70;50.63
51305;HTU21D;37392;50.964;6.952;2022-07-23T16:21:16;26.63;50.54
51305;HTU21D;37392;50.964;6.952;2022-07-23T16:23:42;26.52;50.77